Decoded Metar for LEBB (BILBAO in SPAIN) (IATA:BIO) | Meteo·Mobile Aviation Weather
aviador You're here:

LEBB Decoded Metar

BILBAO in SPAIN
Report Time2019-10-19 23:00:00
UTC Time2019-10-19 23:07:31
Flight Rules mvfr MVFR
Wind280° at 03 kt
W.Decomp.*RWY 28: 3.0 kt HW 0.1 kt RCW
RWY 30: 2.9 kt HW 0.9 kt LCW
Visibility9999 m
Phenomena:Light Rain
Clouds:Broken 029 Hf
Expected CloudBase > 400 ft AGL from Temp-Dew spread
Ceiling2,900 ft
Temp14°C (ISA -1)
Dew Point13°C (94% RH)
AAT13.9°C
QNH1003 hPa
Density Alt561 ft
Elevation112 ft
Report Wrong Elevation
Raw Report
METAR LEBB 192300Z AUTO 28003KT 9999 -RA BKN029 14/13 Q1003=

Extra information for LEBB:More info

Metar Taf Metar & Taf Last 4 Metars F.Rules Stats Wind Profile Meteogram Temp Stats Airport Information Weather charts Add Link Nearby VenuesMetar ALERT Operation Metar Decoded Social comments